Time;durP1;ratioP1;P1;durP2;ratioP2;P2;SDS_P1;SDS_P2;PMS_P1;PMS_P2;Temp;Humidity;BMP_temperature;BMP_pressure;BME280_temperature;BME280_humidity;BME280_pressure;Samples;Min_cycle;Max_cycle;Signal;HPM_P1;HPM_P2
2022/01/15 00:00:27;;;;;;;40.95;30.42;;;;;;;4.13;100.00;103251.66;5032057;28;20399;-54
2022/01/15 00:02:56;;;;;;;44.53;31.63;;;;;;;4.11;100.00;103248.28;5030835;28;20488;-52
2022/01/15 00:05:23;;;;;;;47.22;33.63;;;;;;;4.11;100.00;103248.28;5033148;28;20137;-55
2022/01/15 00:07:52;;;;;;;39.80;28.50;;;;;;;4.10;100.00;103248.47;5032840;28;20049;-50
2022/01/15 00:10:21;;;;;;;44.45;31.48;;;;;;;4.15;100.00;103241.56;5033237;28;20033;-51
2022/01/15 00:12:49;;;;;;;43.20;31.08;;;;;;;4.16;100.00;103237.00;5031873;28;20103;-48
2022/01/15 00:15:28;;;;;;;43.65;31.08;;;;;;;4.16;100.00;103228.91;5015397;28;20048;-52
2022/01/15 00:18:05;;;;;;;41.55;29.88;;;;;;;4.14;100.00;103229.09;5032925;28;20071;-54
2022/01/15 00:20:33;;;;;;;41.08;29.77;;;;;;;4.14;100.00;103218.28;5031719;28;20140;-52
2022/01/15 00:23:00;;;;;;;48.03;31.98;;;;;;;4.10;100.00;103222.31;5031582;28;20484;-53
2022/01/15 00:25:30;;;;;;;40.10;29.38;;;;;;;4.07;100.00;103222.66;5031392;28;20060;-55
2022/01/15 00:27:59;;;;;;;43.35;30.45;;;;;;;4.05;100.00;103230.06;5031168;28;20073;-52
2022/01/15 00:30:27;;;;;;;43.58;31.40;;;;;;;3.98;100.00;103221.78;5032494;28;20485;-54
2022/01/15 00:32:55;;;;;;;40.95;28.75;;;;;;;3.97;100.00;103221.94;5031846;28;20389;-54
2022/01/15 00:35:24;;;;;;;45.30;31.27;;;;;;;3.98;100.00;103229.03;5032774;28;20044;-53
2022/01/15 00:37:52;;;;;;;46.38;32.35;;;;;;;3.96;100.00;103221.09;5032341;28;20044;-54
2022/01/15 00:40:21;;;;;;;41.33;28.75;;;;;;;3.98;100.00;103212.84;5032442;28;20449;-52
2022/01/15 00:42:49;;;;;;;45.45;32.33;;;;;;;4.01;100.00;103215.22;5030744;28;20042;-50
2022/01/15 00:45:21;;;;;;;43.40;30.95;;;;;;;4.02;100.00;103208.81;5036469;28;20044;-49
2022/01/15 00:47:50;;;;;;;42.42;29.58;;;;;;;4.01;100.00;103212.53;5036226;28;20065;-54
2022/01/15 00:50:18;;;;;;;45.88;31.30;;;;;;;4.04;100.00;103196.00;5036286;28;20053;-49
2022/01/15 00:52:46;;;;;;;42.63;29.40;;;;;;;4.07;100.00;103201.09;5036454;28;20381;-56
2022/01/15 00:55:14;;;;;;;43.67;31.23;;;;;;;4.14;100.00;103202.09;5035665;28;20049;-50
2022/01/15 00:57:41;;;;;;;42.05;31.25;;;;;;;4.19;100.00;103199.75;5036503;28;20041;-52
2022/01/15 01:00:12;;;;;;;41.10;29.92;;;;;;;4.23;100.00;103187.63;5036192;28;20047;-55
2022/01/15 01:02:39;;;;;;;43.55;30.73;;;;;;;4.27;100.00;103185.41;5035780;28;20340;-48
2022/01/15 01:05:08;;;;;;;44.75;32.47;;;;;;;4.25;100.00;103188.25;5034172;28;20049;-52
2022/01/15 01:07:35;;;;;;;42.67;30.45;;;;;;;4.20;100.00;103185.22;5035723;28;20091;-53
2022/01/15 01:10:29;;;;;;;39.50;26.95;;;;;;;4.19;100.00;103188.94;5035811;28;20076;-52
2022/01/15 01:21:22;;;;;;;43.38;27.40;;;;;;;4.20;100.00;103179.84;5036187;28;20045;-53
2022/01/15 01:23:49;;;;;;;40.90;27.58;;;;;;;4.22;100.00;103182.38;5034922;28;20731;-54
2022/01/15 01:26:28;;;;;;;48.83;32.45;;;;;;;4.23;100.00;103184.03;5034510;28;20483;-53
2022/01/15 01:29:13;;;;;;;42.28;28.92;;;;;;;4.18;100.00;103173.75;5035513;28;20048;-53
2022/01/15 01:31:54;;;;;;;43.53;29.55;;;;;;;4.18;100.00;103175.63;5035519;28;20045;-51
2022/01/15 01:34:25;;;;;;;42.33;28.50;;;;;;;4.21;100.00;103176.13;5034197;28;20041;-51
2022/01/15 01:39:37;;;;;;;45.25;30.17;;;;;;;4.25;100.00;103166.69;5015722;28;20041;-55
2022/01/15 01:45:09;;;;;;;41.92;27.98;;;;;;;4.15;100.00;103155.22;5029168;28;20060;-56
2022/01/15 01:47:41;;;;;;;43.75;28.17;;;;;;;4.13;100.00;103165.31;5035247;28;20044;-55
2022/01/15 01:50:23;;;;;;;42.75;28.17;;;;;;;4.08;100.00;103164.16;5034194;28;20122;-51
2022/01/15 01:52:53;;;;;;;41.90;26.52;;;;;;;4.07;100.00;103168.72;5035434;28;20068;-49
2022/01/15 01:55:23;;;;;;;43.55;28.38;;;;;;;4.08;100.00;103159.59;5034430;28;20112;-50
2022/01/15 01:57:52;;;;;;;44.97;28.60;;;;;;;4.06;100.00;103153.50;5034173;28;20144;-49
2022/01/15 02:00:21;;;;;;;44.28;28.98;;;;;;;4.05;100.00;103154.53;5035871;28;20037;-53
2022/01/15 02:02:50;;;;;;;42.13;27.75;;;;;;;4.04;100.00;103153.69;5035689;28;20046;-55
2022/01/15 02:05:18;;;;;;;42.25;26.55;;;;;;;4.05;100.00;103151.84;5034793;28;20045;-56
2022/01/15 02:07:46;;;;;;;41.95;27.33;;;;;;;4.04;100.00;103153.69;5025514;28;20045;-53
2022/01/15 02:10:17;;;;;;;43.35;27.52;;;;;;;4.04;100.00;103144.75;5014178;28;20054;-54
2022/01/15 02:12:45;;;;;;;43.28;26.50;;;;;;;4.01;100.00;103145.09;5014355;28;20041;-52
2022/01/15 02:15:16;;;;;;;41.20;24.10;;;;;;;4.00;100.00;103141.53;5028691;28;20072;-54
2022/01/15 02:17:45;;;;;;;35.65;22.77;;;;;;;4.04;100.00;103145.59;5034495;28;20056;-51
2022/01/15 02:25:54;;;;;;;40.28;24.10;;;;;;;4.04;100.00;103132.13;5034491;28;20091;-53
2022/01/15 02:28:26;;;;;;;35.88;23.10;;;;;;;4.11;100.00;103140.38;5034280;28;20041;-55
2022/01/15 02:30:55;;;;;;;37.20;23.45;;;;;;;4.17;100.00;103139.72;5034306;28;20046;-52
2022/01/15 02:33:23;;;;;;;42.38;25.75;;;;;;;4.18;100.00;103133.28;5034587;28;20045;-56
2022/01/15 02:35:52;;;;;;;41.50;25.15;;;;;;;4.17;100.00;103126.22;5034573;28;20041;-53
2022/01/15 02:38:20;;;;;;;44.55;26.67;;;;;;;4.10;100.00;103122.50;5033740;28;20072;-53
2022/01/15 02:40:48;;;;;;;46.08;28.58;;;;;;;4.04;100.00;103125.84;5034602;28;20437;-54
2022/01/15 02:43:19;;;;;;;44.53;26.30;;;;;;;4.00;100.00;103129.91;5034196;28;20046;-56
2022/01/15 02:45:55;;;;;;;44.10;25.35;;;;;;;4.00;100.00;103114.56;5033962;28;20148;-55
2022/01/15 02:48:25;;;;;;;41.95;26.27;;;;;;;4.02;100.00;103117.94;5033874;28;20400;-54
2022/01/15 02:50:53;;;;;;;41.72;25.40;;;;;;;4.06;100.00;103110.34;5034220;28;20042;-50
2022/01/15 02:53:21;;;;;;;42.05;26.48;;;;;;;4.10;100.00;103109.00;5034603;28;20041;-55
2022/01/15 02:55:51;;;;;;;46.20;27.50;;;;;;;4.09;100.00;103103.78;5034143;28;20394;-52
2022/01/15 02:58:21;;;;;;;43.00;24.90;;;;;;;4.04;100.00;103088.97;5031872;28;20045;-56
2022/01/15 03:00:51;;;;;;;43.35;26.45;;;;;;;4.07;100.00;103078.84;5033844;28;20076;-53
2022/01/15 03:03:19;;;;;;;44.00;24.38;;;;;;;4.10;100.00;103076.63;5034109;28;20055;-55
2022/01/15 03:05:47;;;;;;;38.20;23.30;;;;;;;4.12;100.00;103077.31;5033291;28;20045;-51
2022/01/15 03:08:14;;;;;;;41.97;25.58;;;;;;;4.18;100.00;103075.78;5033082;28;20542;-57
2022/01/15 03:10:42;;;;;;;38.78;23.80;;;;;;;4.14;100.00;103060.97;5033848;28;20383;-54
2022/01/15 03:13:12;;;;;;;42.03;23.67;;;;;;;4.07;100.00;103068.91;5033732;28;20452;-52
2022/01/15 03:15:41;;;;;;;38.78;22.75;;;;;;;4.05;100.00;103062.81;5034040;28;20055;-54
2022/01/15 03:18:08;;;;;;;36.95;22.75;;;;;;;3.94;100.00;103063.16;5033222;28;20057;-54
2022/01/15 03:20:36;;;;;;;37.58;22.05;;;;;;;3.88;100.00;103058.44;5034074;28;20160;-55
2022/01/15 03:23:04;;;;;;;37.08;21.75;;;;;;;3.90;100.00;103059.13;5035987;28;20040;-52
2022/01/15 03:25:31;;;;;;;40.03;24.27;;;;;;;3.96;100.00;103047.66;5034532;28;20042;-55
2022/01/15 03:27:59;;;;;;;34.03;20.67;;;;;;;3.98;100.00;103051.84;5033669;28;20059;-51
2022/01/15 03:30:26;;;;;;;37.53;22.45;;;;;;;4.00;100.00;103041.75;5033379;28;20147;-52
2022/01/15 03:32:54;;;;;;;38.05;24.08;;;;;;;4.00;100.00;103043.59;5033375;28;20053;-54
2022/01/15 03:35:22;;;;;;;33.88;19.38;;;;;;;4.01;100.00;103039.88;5033364;28;20072;-51
2022/01/15 03:37:49;;;;;;;35.17;20.73;;;;;;;3.97;100.00;103036.69;5033199;28;20046;-51
2022/01/15 03:40:17;;;;;;;35.53;21.27;;;;;;;3.97;100.00;103030.44;5032452;28;20491;-50
2022/01/15 03:42:45;;;;;;;37.22;21.95;;;;;;;3.92;100.00;103033.66;5033169;28;20062;-53
2022/01/15 03:45:14;;;;;;;33.80;20.20;;;;;;;3.87;100.00;103037.88;5033715;28;20510;-49
2022/01/15 03:47:43;;;;;;;31.30;20.52;;;;;;;3.84;100.00;103036.34;5032134;28;20495;-54
2022/01/15 03:50:12;;;;;;;35.38;20.75;;;;;;;3.90;100.00;103030.28;5032591;28;20485;-54
2022/01/15 03:52:40;;;;;;;35.58;20.67;;;;;;;3.88;100.00;103039.56;5033421;28;20132;-50
2022/01/15 03:55:09;;;;;;;39.80;22.98;;;;;;;3.86;100.00;103034.34;5033198;28;20041;-51
2022/01/15 03:57:37;;;;;;;36.17;22.80;;;;;;;3.88;100.00;103036.88;5033302;28;20046;-54
2022/01/15 04:00:11;;;;;;;35.75;21.42;;;;;;;3.90;100.00;103024.91;5032354;28;20083;-54
2022/01/15 04:02:39;;;;;;;36.67;21.00;;;;;;;3.95;100.00;103024.41;5033028;28;20511;-53
2022/01/15 04:05:08;;;;;;;32.33;19.67;;;;;;;4.02;100.00;103020.84;5031900;28;20045;-52
2022/01/15 04:07:35;;;;;;;31.95;18.83;;;;;;;4.08;100.00;103018.47;5032941;28;20046;-52
2022/01/15 04:10:04;;;;;;;35.60;20.70;;;;;;;4.11;100.00;103018.97;5031246;28;20045;-55
2022/01/15 04:12:32;;;;;;;33.85;19.88;;;;;;;4.08;100.00;103019.31;5032665;28;20080;-53
2022/01/15 04:15:00;;;;;;;31.58;19.67;;;;;;;4.08;100.00;103013.91;5031795;28;20124;-54
2022/01/15 04:17:27;;;;;;;32.22;20.73;;;;;;;3.99;100.00;103013.09;5031725;28;20504;-53
2022/01/15 04:19:56;;;;;;;33.22;20.13;;;;;;;3.94;100.00;103003.81;5032782;28;20444;-54
2022/01/15 04:22:23;;;;;;;33.65;19.38;;;;;;;3.96;100.00;103010.72;5003754;28;20424;-52
2022/01/15 04:24:51;;;;;;;38.08;20.73;;;;;;;4.02;100.00;103007.34;5029530;28;20044;-52
2022/01/15 04:27:23;;;;;;;33.22;19.95;;;;;;;4.07;100.00;103003.31;5032566;28;20087;-55
2022/01/15 04:29:51;;;;;;;34.60;20.42;;;;;;;4.12;100.00;102999.09;5032959;28;20053;-53
2022/01/15 04:32:19;;;;;;;33.10;19.77;;;;;;;4.13;100.00;102994.53;5030937;28;20045;-51
2022/01/15 04:34:47;;;;;;;29.20;18.60;;;;;;;4.07;100.00;102979.03;5032505;28;20500;-51
2022/01/15 04:37:20;;;;;;;32.65;18.48;;;;;;;4.07;100.00;102982.56;5033082;28;20092;-52
2022/01/15 04:39:48;;;;;;;30.30;17.98;;;;;;;4.09;100.00;102977.84;5033175;28;20041;-52
2022/01/15 04:42:16;;;;;;;30.27;17.88;;;;;;;4.11;100.00;102973.09;5032240;28;20050;-52
2022/01/15 04:44:44;;;;;;;29.15;18.00;;;;;;;4.12;100.00;102977.50;5031436;28;20060;-56
2022/01/15 04:47:11;;;;;;;26.10;16.05;;;;;;;4.14;100.00;102977.34;5032566;28;20085;-56
2022/01/15 04:49:39;;;;;;;23.50;14.98;;;;;;;4.15;100.00;102974.44;5032729;28;20049;-56
2022/01/15 04:52:06;;;;;;;24.48;15.18;;;;;;;4.18;100.00;102970.56;5032288;28;20147;-57
2022/01/15 04:54:36;;;;;;;29.20;15.85;;;;;;;4.19;100.00;102980.34;5032053;28;20128;-53
2022/01/15 04:57:04;;;;;;;27.45;16.05;;;;;;;4.20;100.00;102980.16;5032560;28;20484;-48
2022/01/15 04:59:32;;;;;;;26.15;15.35;;;;;;;4.20;100.00;102977.47;5032523;28;20045;-54
2022/01/15 05:02:00;;;;;;;29.50;17.38;;;;;;;4.18;100.00;102973.25;5030988;28;20056;-56
2022/01/15 05:04:28;;;;;;;21.13;13.35;;;;;;;4.10;100.00;102967.91;5032222;28;20045;-54
2022/01/15 05:06:55;;;;;;;26.60;15.98;;;;;;;4.09;100.00;102968.88;5031245;28;20049;-56
2022/01/15 05:09:23;;;;;;;30.77;17.33;;;;;;;4.09;100.00;102966.19;5031833;28;20045;-56
2022/01/15 05:14:27;;;;;;;27.60;15.75;;;;;;;4.07;100.00;102966.38;5032114;28;20042;-55
2022/01/15 05:16:54;;;;;;;27.42;14.98;;;;;;;4.08;100.00;102953.72;5031205;28;20048;-54
2022/01/15 05:19:22;;;;;;;25.75;14.32;;;;;;;4.11;100.00;102956.91;5032085;28;20496;-54
2022/01/15 05:21:50;;;;;;;26.27;16.20;;;;;;;4.14;100.00;102956.59;5032199;28;20172;-54
2022/01/15 05:24:17;;;;;;;29.17;15.93;;;;;;;4.17;100.00;102953.53;5031731;28;20041;-53
2022/01/15 05:26:45;;;;;;;25.75;14.43;;;;;;;4.21;100.00;102948.63;5032306;28;20041;-56
2022/01/15 05:29:12;;;;;;;29.05;16.27;;;;;;;4.24;100.00;102951.84;5032724;28;20044;-53
2022/01/15 05:31:40;;;;;;;26.88;15.20;;;;;;;4.27;100.00;102954.19;5036228;28;20092;-52
2022/01/15 05:34:07;;;;;;;29.15;16.98;;;;;;;4.28;100.00;102949.63;5036736;28;20080;-52
2022/01/15 05:36:35;;;;;;;25.08;16.60;;;;;;;4.25;100.00;102945.41;5035608;28;20447;-49
2022/01/15 05:39:03;;;;;;;28.48;16.35;;;;;;;4.15;100.00;102933.97;5035581;28;20053;-52
2022/01/15 05:41:31;;;;;;;28.20;16.63;;;;;;;4.05;100.00;102938.75;5035780;28;20050;-52
2022/01/15 05:44:01;;;;;;;28.40;17.95;;;;;;;3.96;100.00;102931.66;5035277;28;20415;-54
2022/01/15 05:46:30;;;;;;;28.40;17.00;;;;;;;3.92;100.00;102920.41;5034160;28;20041;-54
2022/01/15 05:48:58;;;;;;;29.60;18.05;;;;;;;3.90;100.00;102924.28;5034218;28;20041;-55
2022/01/15 05:51:29;;;;;;;32.05;20.02;;;;;;;3.83;100.00;102919.56;5035451;28;20044;-52
2022/01/15 05:54:03;;;;;;;31.05;18.42;;;;;;;3.81;100.00;102915.34;5034811;28;20451;-55
2022/01/15 05:56:31;;;;;;;31.65;17.73;;;;;;;3.71;100.00;102920.94;5035208;28;20419;-56
2022/01/15 05:58:58;;;;;;;33.95;19.48;;;;;;;3.71;100.00;102920.09;5035561;28;20045;-53
2022/01/15 06:01:26;;;;;;;31.42;19.45;;;;;;;3.69;100.00;102912.16;5035139;28;20125;-52
2022/01/15 06:03:54;;;;;;;31.40;19.77;;;;;;;3.64;100.00;102911.84;5033832;28;20109;-56
2022/01/15 06:06:22;;;;;;;31.55;18.50;;;;;;;3.70;100.00;102907.63;5035104;28;20041;-50
2022/01/15 06:08:49;;;;;;;32.15;19.83;;;;;;;3.81;100.00;102913.50;5034742;28;20520;-52
2022/01/15 06:11:18;;;;;;;32.85;20.88;;;;;;;3.89;100.00;102911.78;5034027;28;20042;-53
2022/01/15 06:13:46;;;;;;;36.40;20.60;;;;;;;3.93;100.00;102907.75;5035108;28;20037;-52
2022/01/15 06:16:14;;;;;;;30.15;18.10;;;;;;;3.94;100.00;102915.66;5034501;28;20500;-52
2022/01/15 06:18:42;;;;;;;33.58;20.13;;;;;;;4.00;100.00;102906.03;5034554;28;20420;-53
2022/01/15 06:21:10;;;;;;;36.10;22.05;;;;;;;4.01;100.00;102911.25;5035092;28;20037;-53
2022/01/15 06:23:38;;;;;;;35.72;21.23;;;;;;;3.96;100.00;102896.59;5034713;28;20037;-51
2022/01/15 06:26:05;;;;;;;36.80;22.40;;;;;;;3.93;100.00;102899.66;5034398;28;20512;-55
2022/01/15 06:28:33;;;;;;;34.47;21.15;;;;;;;3.89;100.00;102895.63;5035398;28;20041;-51
2022/01/15 06:31:01;;;;;;;31.75;20.67;;;;;;;3.89;100.00;102896.44;5034533;28;20411;-50
2022/01/15 06:33:32;;;;;;;29.92;18.67;;;;;;;3.89;100.00;102890.22;5034474;28;20041;-49
2022/01/15 06:36:00;;;;;;;36.50;21.75;;;;;;;3.82;100.00;102890.94;5034328;28;20060;-52
2022/01/15 06:38:28;;;;;;;31.95;20.60;;;;;;;3.80;100.00;102887.56;5033550;28;20056;-51
2022/01/15 06:40:55;;;;;;;31.85;20.20;;;;;;;3.82;100.00;102880.16;5034234;28;20044;-54
2022/01/15 06:43:23;;;;;;;30.45;18.27;;;;;;;3.83;100.00;102891.75;5033951;28;20049;-55
2022/01/15 06:45:50;;;;;;;31.30;20.58;;;;;;;3.84;100.00;102883.47;5034414;28;20458;-52
2022/01/15 06:48:18;;;;;;;37.33;23.85;;;;;;;3.87;100.00;102878.75;5034019;28;20045;-53
2022/01/15 06:50:46;;;;;;;34.53;23.42;;;;;;;3.72;100.00;102879.47;5034335;28;20052;-51
2022/01/15 06:53:13;;;;;;;37.78;24.05;;;;;;;3.57;100.00;102881.19;5034596;28;20044;-53
2022/01/15 06:55:41;;;;;;;36.10;23.92;;;;;;;3.54;100.00;102881.53;5033842;28;20059;-50
2022/01/15 06:58:08;;;;;;;35.90;23.83;;;;;;;3.53;100.00;102879.84;5034033;28;20049;-53
2022/01/15 07:00:36;;;;;;;34.08;22.67;;;;;;;3.48;100.00;102866.88;5034249;28;20041;-53
2022/01/15 07:03:04;;;;;;;30.80;21.55;;;;;;;3.58;100.00;102867.56;5033718;28;20091;-54
2022/01/15 07:05:32;;;;;;;30.75;20.70;;;;;;;3.69;100.00;102863.66;5034117;28;20053;-50
2022/01/15 07:07:59;;;;;;;29.67;19.70;;;;;;;3.74;100.00;102871.22;5033749;28;20041;-56
2022/01/15 07:10:27;;;;;;;36.58;24.02;;;;;;;3.85;100.00;102862.78;5033667;28;20044;-53
2022/01/15 07:12:54;;;;;;;32.05;22.30;;;;;;;3.81;100.00;102864.13;5034323;28;20076;-52
2022/01/15 07:15:22;;;;;;;34.20;24.17;;;;;;;3.82;100.00;102871.19;5033474;28;20041;-53
2022/01/15 07:17:50;;;;;;;31.77;21.15;;;;;;;3.85;100.00;102870.88;5033477;28;20052;-50
2022/01/15 07:20:19;;;;;;;33.45;21.77;;;;;;;3.88;100.00;102877.75;5034363;28;20042;-53
2022/01/15 07:22:47;;;;;;;31.52;21.50;;;;;;;3.87;100.00;102878.75;5034421;28;20041;-48
2022/01/15 07:25:14;;;;;;;31.63;21.02;;;;;;;3.73;100.00;102875.78;5033191;28;20143;-51
2022/01/15 07:27:42;;;;;;;29.05;20.20;;;;;;;3.69;100.00;102879.81;5033326;28;20371;-53
2022/01/15 07:30:12;;;;;;;25.02;17.27;;;;;;;3.62;100.00;102878.81;5033248;28;20046;-55
2022/01/15 07:32:40;;;;;;;25.90;18.45;;;;;;;3.58;100.00;102877.47;5033285;28;20048;-55
2022/01/15 07:35:13;;;;;;;24.52;16.42;;;;;;;3.51;100.00;102877.34;5033188;28;20050;-52
2022/01/15 07:37:41;;;;;;;24.27;17.17;;;;;;;3.49;100.00;102873.09;5033234;28;20045;-52
2022/01/15 07:40:09;;;;;;;23.13;16.00;;;;;;;3.44;100.00;102872.78;5031933;28;20479;-58
2022/01/15 07:42:39;;;;;;;23.00;15.50;;;;;;;3.44;100.00;102872.78;5031611;28;20041;-50
2022/01/15 07:45:09;;;;;;;26.75;18.15;;;;;;;3.50;100.00;102872.94;5033360;28;20124;-55
2022/01/15 07:47:38;;;;;;;26.60;18.38;;;;;;;3.50;100.00;102875.63;5033065;28;20044;-55
2022/01/15 07:50:08;;;;;;;28.23;19.95;;;;;;;3.48;100.00;102882.22;5013639;28;20042;-56
2022/01/15 07:52:35;;;;;;;29.08;20.55;;;;;;;3.51;100.00;102881.84;5014331;28;20041;-54
2022/01/15 07:55:04;;;;;;;29.35;20.23;;;;;;;3.57;100.00;102882.03;5032234;28;20069;-56
2022/01/15 07:57:52;;;;;;;33.00;22.35;;;;;;;3.68;100.00;102871.88;5032997;28;20573;-52
2022/01/15 08:00:20;;;;;;;32.90;22.88;;;;;;;3.71;100.00;102880.50;5032508;28;20503;-57
2022/01/15 08:02:48;;;;;;;35.60;23.80;;;;;;;3.75;100.00;102878.28;5032052;28;20519;-57
2022/01/15 08:05:16;;;;;;;30.30;21.98;;;;;;;3.77;100.00;102877.09;5033076;28;20124;-55
2022/01/15 08:07:44;;;;;;;30.92;22.27;;;;;;;3.78;100.00;102870.72;5032519;28;20045;-55
2022/01/15 08:10:12;;;;;;;29.50;20.45;;;;;;;3.78;100.00;102870.72;5032392;28;20053;-52
2022/01/15 08:12:51;;;;;;;34.33;23.35;;;;;;;3.80;100.00;102855.19;5032628;28;20042;-53
2022/01/15 08:15:21;;;;;;;32.60;21.67;;;;;;;3.82;100.00;102857.72;5033512;28;20048;-55
2022/01/15 08:17:50;;;;;;;32.50;22.63;;;;;;;3.84;100.00;102861.06;5033237;28;20492;-53
2022/01/15 08:20:18;;;;;;;29.25;22.48;;;;;;;3.89;100.00;102855.16;5031199;28;20132;-55
2022/01/15 08:22:46;;;;;;;32.28;21.95;;;;;;;3.80;100.00;102848.94;5032429;28;20068;-55
2022/01/15 08:25:18;;;;;;;31.83;22.17;;;;;;;3.69;100.00;102855.56;5032580;28;20056;-55
2022/01/15 08:27:47;;;;;;;30.38;21.02;;;;;;;3.60;100.00;102854.72;5032588;28;20045;-56
2022/01/15 08:30:15;;;;;;;34.22;23.65;;;;;;;3.58;100.00;102858.59;5031603;28;20042;-57
2022/01/15 08:32:43;;;;;;;27.65;19.67;;;;;;;3.67;100.00;102860.28;5031731;28;20053;-55
2022/01/15 08:35:11;;;;;;;25.20;18.55;;;;;;;3.65;100.00;102861.47;5030961;28;20108;-57
2022/01/15 08:37:40;;;;;;;28.80;18.27;;;;;;;3.69;100.00;102869.03;5032667;28;20042;-53
2022/01/15 08:40:10;;;;;;;27.58;19.20;;;;;;;3.73;100.00;102859.59;5032418;28;20038;-48
2022/01/15 08:42:38;;;;;;;28.70;20.30;;;;;;;3.72;100.00;102874.06;5032273;28;20057;-54
2022/01/15 08:45:07;;;;;;;23.25;16.40;;;;;;;3.73;100.00;102870.38;5031839;28;20038;-54
2022/01/15 08:47:35;;;;;;;27.63;18.77;;;;;;;3.72;100.00;102868.69;5032656;28;20038;-55
2022/01/15 08:50:04;;;;;;;28.05;19.80;;;;;;;3.75;100.00;102864.81;5032253;28;20077;-54
2022/01/15 08:52:32;;;;;;;23.58;17.02;;;;;;;3.74;100.00;102869.34;5032577;28;20140;-54
2022/01/15 08:55:00;;;;;;;27.20;18.40;;;;;;;3.75;100.00;102862.97;5031707;28;20075;-53
2022/01/15 08:57:28;;;;;;;28.17;18.88;;;;;;;3.76;100.00;102861.94;5032451;28;20438;-65
2022/01/15 08:59:55;;;;;;;28.63;18.95;;;;;;;3.74;100.00;102872.06;5020946;28;20041;-55
2022/01/15 09:02:24;;;;;;;29.88;20.27;;;;;;;3.70;100.00;102873.41;5032417;28;20052;-50
2022/01/15 09:04:53;;;;;;;28.52;19.15;;;;;;;3.70;100.00;102875.25;5034120;28;20083;-55
2022/01/15 09:07:20;;;;;;;31.13;20.35;;;;;;;3.70;100.00;102870.72;5035986;28;20475;-50
2022/01/15 09:09:48;;;;;;;23.98;16.45;;;;;;;3.69;100.00;102868.19;5034344;28;20043;-53
2022/01/15 09:12:17;;;;;;;25.95;16.48;;;;;;;3.73;100.00;102867.69;5034489;28;20041;-54
2022/01/15 09:14:44;;;;;;;29.05;19.60;;;;;;;3.64;100.00;102857.94;5035536;28;20052;-51
2022/01/15 09:17:12;;;;;;;24.75;17.85;;;;;;;3.47;100.00;102864.38;5035457;28;20567;-54
2022/01/15 09:19:39;;;;;;;29.63;19.90;;;;;;;3.35;100.00;102866.56;5033991;28;20056;-51
2022/01/15 09:22:11;;;;;;;28.90;19.40;;;;;;;3.29;100.00;102868.06;5035604;28;20511;-53
2022/01/15 09:24:39;;;;;;;34.40;21.98;;;;;;;3.29;100.00;102857.28;5019855;28;20514;-57
2022/01/15 09:30:15;;;;;;;35.85;25.02;;;;;;;3.24;100.00;102848.88;5005852;28;20038;-53
2022/01/15 09:32:46;;;;;;;34.97;23.15;;;;;;;3.22;100.00;102850.88;5027589;28;20082;-51
2022/01/15 09:35:17;;;;;;;35.95;23.65;;;;;;;3.25;100.00;102847.88;5013703;28;20100;-53
2022/01/15 09:37:46;;;;;;;37.40;24.90;;;;;;;3.32;100.00;102843.50;5027083;28;20408;-53
2022/01/15 09:40:14;;;;;;;37.28;25.63;;;;;;;3.34;100.00;102844.19;5017070;28;20515;-52
2022/01/15 09:42:47;;;;;;;42.05;26.35;;;;;;;3.37;100.00;102843.81;5013066;28;20425;-56
2022/01/15 09:45:16;;;;;;;28.48;19.75;;;;;;;3.33;100.00;102842.47;5025205;28;20080;-53
2022/01/15 09:47:44;;;;;;;26.02;19.23;;;;;;;3.39;100.00;102838.25;5033161;28;20435;-48
2022/01/15 09:50:14;;;;;;;24.55;17.02;;;;;;;3.42;100.00;102829.84;5030865;28;20072;-53
2022/01/15 09:52:41;;;;;;;22.73;16.33;;;;;;;3.47;100.00;102832.88;5013126;28;20515;-52
2022/01/15 09:55:12;;;;;;;21.20;15.25;;;;;;;3.46;100.00;102831.16;5012874;28;20056;-52
2022/01/15 09:57:41;;;;;;;20.50;15.23;;;;;;;3.47;100.00;102834.72;5013109;28;20527;-53
2022/01/15 10:00:15;;;;;;;20.92;14.85;;;;;;;3.49;100.00;102833.53;5023894;28;20057;-54
2022/01/15 10:02:44;;;;;;;19.23;13.27;;;;;;;3.49;100.00;102824.59;5029899;28;20042;-51
2022/01/15 10:05:13;;;;;;;18.52;12.95;;;;;;;3.49;100.00;102833.53;4999778;28;20042;-51
2022/01/15 10:07:59;;;;;;;18.67;13.63;;;;;;;3.49;100.00;102824.59;5024578;28;20120;-53
2022/01/15 10:10:29;;;;;;;18.27;12.90;;;;;;;3.45;100.00;102839.44;5034539;28;20429;-52
2022/01/15 10:13:14;;;;;;;19.35;14.00;;;;;;;3.34;100.00;102838.78;5034306;28;20132;-53
2022/01/15 10:15:44;;;;;;;18.15;13.77;;;;;;;3.32;100.00;102840.81;5032974;28;20052;-52
2022/01/15 10:18:44;;;;;;;19.65;13.48;;;;;;;3.25;100.00;102839.81;5034292;28;20561;-51
2022/01/15 10:21:16;;;;;;;18.52;13.70;;;;;;;3.26;100.00;102838.78;5034836;28;20099;-51
2022/01/15 10:23:51;;;;;;;18.95;13.27;;;;;;;3.34;100.00;102846.00;5034137;28;20052;-49
2022/01/15 10:26:21;;;;;;;19.25;13.85;;;;;;;3.38;100.00;102850.88;5034781;28;20049;-51
2022/01/15 10:29:07;;;;;;;19.00;13.45;;;;;;;3.41;100.00;102853.22;5034344;28;20192;-57
2022/01/15 10:31:40;;;;;;;19.85;13.75;;;;;;;3.43;100.00;102845.00;5033001;28;20045;-54
2022/01/15 10:34:26;;;;;;;20.10;14.15;;;;;;;3.43;100.00;102834.22;5033517;28;20044;-56
2022/01/15 10:37:05;;;;;;;18.52;13.60;;;;;;;3.48;100.00;102833.69;5033763;28;20128;-52
2022/01/15 10:39:33;;;;;;;18.73;13.50;;;;;;;3.51;100.00;102836.03;5033806;28;20148;-57
2022/01/15 10:42:00;;;;;;;18.35;11.80;;;;;;;3.60;100.00;102832.31;5033460;28;20053;-53
2022/01/15 10:44:28;;;;;;;21.73;14.75;;;;;;;3.69;100.00;102831.28;5032887;28;20045;-54
2022/01/15 10:47:17;;;;;;;20.50;14.93;;;;;;;3.68;100.00;102829.63;5034356;28;20072;-55
2022/01/15 10:49:45;;;;;;;23.98;15.10;;;;;;;3.67;100.00;102825.22;5033709;28;20077;-52
2022/01/15 10:52:20;;;;;;;19.25;13.38;;;;;;;3.68;100.00;102823.38;5033919;28;20069;-56
2022/01/15 10:54:53;;;;;;;22.02;15.20;;;;;;;3.66;100.00;102820.88;5033870;28;20049;-53
2022/01/15 10:57:24;;;;;;;23.58;16.00;;;;;;;3.64;100.00;102822.88;5034800;28;20057;-52
2022/01/15 11:00:18;;;;;;;22.13;16.52;;;;;;;3.62;100.00;102814.97;5034188;28;20463;-55
2022/01/15 11:02:54;;;;;;;24.10;16.73;;;;;;;3.65;100.00;102811.09;5015590;28;20041;-50
2022/01/15 11:05:32;;;;;;;23.70;17.08;;;;;;;3.59;100.00;102814.47;5014113;28;20400;-51
2022/01/15 11:08:08;;;;;;;24.00;16.88;;;;;;;3.58;100.00;102812.78;5031529;28;20128;-55
2022/01/15 11:10:43;;;;;;;19.98;14.48;;;;;;;3.58;100.00;102812.78;5031276;28;20430;-51
2022/01/15 11:13:14;;;;;;;21.83;14.80;;;;;;;3.51;100.00;102812.66;4996905;28;20125;-53
2022/01/15 11:15:47;;;;;;;23.05;16.33;;;;;;;3.49;100.00;102803.03;5012003;28;20292;-55
2022/01/15 11:18:22;;;;;;;22.33;14.77;;;;;;;3.42;100.00;102795.66;5011594;28;20420;-55
2022/01/15 11:20:55;;;;;;;21.75;14.80;;;;;;;3.47;100.00;102786.22;5014770;28;20042;-53
2022/01/15 11:23:24;;;;;;;22.55;15.88;;;;;;;3.47;100.00;102778.97;5011421;28;20064;-50
2022/01/15 11:25:53;;;;;;;24.00;17.00;;;;;;;3.50;100.00;102781.31;5011288;28;20038;-51
2022/01/15 11:28:23;;;;;;;25.67;17.60;;;;;;;3.55;100.00;102791.56;5011768;28;20038;-52
2022/01/15 11:30:54;;;;;;;25.75;18.88;;;;;;;3.56;100.00;102790.56;5011988;28;20057;-53
2022/01/15 11:33:30;;;;;;;29.17;18.70;;;;;;;3.56;100.00;102777.94;4997563;28;20134;-53
2022/01/15 11:35:57;;;;;;;26.05;17.98;;;;;;;3.60;100.00;102781.13;5014600;28;20057;-51
2022/01/15 11:38:37;;;;;;;28.55;19.58;;;;;;;3.65;100.00;102773.34;5019186;28;20052;-52
2022/01/15 11:41:05;;;;;;;27.50;19.38;;;;;;;3.64;100.00;102766.28;5014751;28;20049;-54
2022/01/15 11:43:36;;;;;;;29.20;21.48;;;;;;;3.68;100.00;102767.63;5018613;28;20551;-52
2022/01/15 11:46:26;;;;;;;28.38;20.08;;;;;;;3.72;100.00;102771.63;5033121;28;20048;-52